AirNav   Phillips 66 Aviation Fuel
 
 325 users online  

OH83 Lima Memorial Hospital Heliport
Lima, Ohio, USA

GOING TO LIMA?


FAA INFORMATION EFFECTIVE 20 JULY 2017

Location

FAA Identifier: OH83
Lat/Long: 40-44-08.4400N / 084-05-12.8100W
40-44.140667N / 084-05.213500W
40.7356778 / -84.0868917
(estimated)
Elevation: 880 ft. / 268 m (estimated)
Variation: 04W (1985)
Time zone: UTC -4 (UTC -5 during Standard Time)
Zip code: 45804

Heliport Operations

Heliport use: Private use, MEDICAL USE.
Activation date: 08/1971
Control tower: no
ARTCC: INDIANAPOLIS CENTER
FSS: DAYTON FLIGHT SERVICE STATION
Attendance: UNATNDD
Wind indicator: yes
Segmented circle: no
Beacon: white-yellow (lighted seaplane base)

Heliport Communications

WX ASOS at AOH (3 nm SE): 128.725 (419-224-6098)
WX AWOS-3 at AXV (17 nm SW): 128.325 (419-753-2821)
WX AWOS-3 at OWX (19 nm N): 120.525 (419-523-4151)

Nearby radio navigation aids

VOR radial/distance  VOR name  Freq  Var
FBCr231/20.0FLAG CITY VORTAC108.2002W
RODr001/26.9ROSEWOOD VORTAC117.5005W

 
NDB name  Hdg/Dist  Freq  Var  ID
RUSHSYLVANIA316/25.332605WRUV .-. ..- ...-
BENTON RIDGE233/25.633405WBNR -... -. .-.

Heliport Services

Runway Information

Helipad H1

Dimensions: 60 x 60 ft. / 18 x 18 m
Surface: concrete
Runway edge lights: 40 WATT HEMISPHERICAL LGTS.
Latitude: 40-44.140667N
Longitude: 084-05.213500W
Elevation: 880.0 ft.
Traffic pattern: leftleft

Heliport Ownership and Management from official FAA records

Ownership: Privately-owned
Owner: LIMA MEMORIAL HOSPITAL
1001 BELLEFONTAINE AVE
LIMA, OH 45804
Phone 419-228-3335
Manager: SECURITY MANAGER
1001 BELLEFONTAINE AVE
LIMA, OH 45804
Phone 419-228-3335

Additional Remarks

A52-H1 TREES N AND W; PLINES S; AND LGTD BLDG E.

Instrument Procedures

There are no published instrument procedures at OH83.

Some nearby airports with instrument procedures:

KAOH - Lima Allen County Airport (3 nm SE)
5G7 - Bluffton Airport (13 nm NE)
KAXV - Neil Armstrong Airport (17 nm SW)
KOWX - Putnam County Airport (19 nm N)
I95 - Hardin County Airport (22 nm E)
 
Loc | Ops | Rwys | IFR | FBO | Links
Com | Nav | Svcs | Stats | Notes

City of Findlay
 
Area around OH83 (Lima Memorial Hospital Heliport)
 
Road maps at: MapQuest Bing Google
 
Aerial photo
No photo
 
Sectional chart

 
Airport distance calculator
Flying to Lima Memorial Hospital Heliport? Find the distance to fly.

From to OH83

Sunrise and sunset
Times for 26-Jul-2017
 Local
(UTC-4)
 Zulu
(UTC)
Morning civil twilight05:5709:57
Sunrise06:2810:28
Sunset20:5700:57
Evening civil twilight21:2901:29

Current date and time
Zulu (UTC)  26-Jul-2017 09:04:12
Local (UTC-4)  26-Jul-2017 05:04:12
 
METAR
KAOH 
4nm SE 
260853Z AUTO 14003KT 10SM CLR 14/14 A3019 RMK AO2 SLP218 T01390139 56002 $
KAXV 
17nm SW 
260854Z AUTO 00000KT 7SM CLR 14/13 A3018 RMK AO2
KOWX 
19nm N 
260855Z AUTO 12004KT 10SM CLR 13/13 A3020 RMK AO1
TAF
KFDY 
25nm NE 
260520Z 2606/2706 VRB04KT P6SM FEW250 TEMPO 2610/2614 5SM BR FM270400 18004KT P6SM BKN200 BKN220
NOTAMs
Click for the latest NOTAMs
NOTAMs are issued by the DoD/FAA and will open in a separate window not controlled by AirNav.

 

 
 

Would you like to see your business listed on this page?

 If your business provides an interesting product or service to pilots, flight crews, aircraft, or users of the Lima Memorial Hospital Heliport, you should consider listing it here.  To start the listing process, click on the button below
 
Add a business
 

Other Pages about Lima Memorial Hospital Heliport

Update a link
 
Copyright © AirNav, LLC. All rights reserved. Privacy Policy  Contact